createdAt,value
2019-05-15T00:00:18.652Z,89.0
2019-05-15T00:00:48.659Z,87.0
2019-05-15T00:02:10.786Z,89.0
2019-05-15T00:02:48.678Z,89.0
2019-05-15T00:04:18.767Z,90.0
2019-05-15T00:04:49.231Z,90.0
2019-05-15T00:06:08.874Z,90.0
2019-05-15T00:06:48.903Z,90.0
2019-05-15T00:08:09.329Z,90.0
2019-05-15T00:09:41.710Z,90.0
2019-05-15T00:10:19.006Z,90.0
2019-05-15T00:10:49.001Z,91.0
2019-05-15T00:12:09.130Z,90.0
2019-05-15T00:12:49.095Z,91.0
2019-05-15T00:14:19.105Z,91.0
2019-05-15T00:14:49.098Z,91.0
2019-05-15T00:16:09.148Z,92.0
2019-05-15T00:16:49.129Z,91.0
2019-05-15T00:18:09.174Z,91.0
2019-05-15T00:19:39.173Z,91.0
2019-05-15T00:20:20.213Z,91.0
2019-05-15T00:20:49.753Z,90.0
2019-05-15T00:22:09.279Z,91.0
2019-05-15T00:22:49.259Z,90.0
2019-05-15T00:24:19.287Z,90.0
2019-05-15T00:24:49.295Z,91.0
2019-05-15T00:26:09.527Z,90.0
2019-05-15T00:26:49.323Z,90.0
2019-05-15T00:28:09.833Z,91.0
2019-05-15T00:29:39.400Z,91.0
2019-05-15T00:30:19.418Z,91.0
2019-05-15T00:30:49.411Z,91.0
2019-05-15T00:32:09.434Z,92.0
2019-05-15T00:32:49.440Z,92.0
2019-05-15T00:34:19.473Z,92.0
2019-05-15T00:34:49.476Z,92.0
2019-05-15T00:36:09.499Z,92.0
2019-05-15T00:36:49.517Z,92.0
2019-05-15T00:38:09.681Z,92.0
2019-05-15T00:39:39.575Z,92.0
2019-05-15T00:40:19.582Z,92.0
2019-05-15T00:40:49.780Z,92.0
2019-05-15T00:41:29.671Z,92.0
2019-05-15T00:42:49.658Z,92.0
2019-05-15T00:43:29.653Z,92.0
2019-05-15T00:44:09.677Z,92.0
2019-05-15T00:44:49.681Z,92.0
2019-05-15T00:45:29.723Z,92.0
2019-05-15T00:46:09.689Z,92.0
2019-05-15T00:46:49.700Z,92.0
2019-05-15T00:48:09.730Z,92.0
2019-05-15T00:49:39.756Z,92.0
2019-05-15T00:50:19.761Z,92.0
2019-05-15T00:50:49.771Z,92.0
2019-05-15T00:52:12.026Z,92.0
2019-05-15T00:52:49.817Z,92.0
2019-05-15T00:53:29.896Z,92.0
2019-05-15T00:54:19.851Z,91.0
2019-05-15T00:54:49.852Z,91.0
2019-05-15T00:56:09.897Z,91.0
2019-05-15T00:56:49.905Z,91.0
2019-05-15T00:58:10.032Z,91.0
2019-05-15T00:59:40.012Z,92.0
2019-05-15T01:00:20.039Z,92.0
2019-05-15T01:00:50.041Z,92.0
2019-05-15T01:02:10.071Z,92.0
2019-05-15T01:03:50.097Z,91.0
2019-05-15T01:05:10.107Z,91.0
2019-05-15T01:05:50.126Z,92.0
2019-05-15T01:06:20.139Z,92.0
2019-05-15T01:07:40.163Z,91.0
2019-05-15T01:08:20.186Z,91.0
2019-05-15T01:09:10.243Z,92.0
2019-05-15T01:09:50.289Z,92.0
2019-05-15T01:11:10.360Z,91.0
2019-05-15T01:11:50.374Z,92.0
2019-05-15T01:12:20.392Z,92.0
2019-05-15T01:13:50.447Z,92.0
2019-05-15T01:15:10.468Z,92.0
2019-05-15T01:15:50.472Z,92.0
2019-05-15T01:16:20.485Z,92.0
2019-05-15T01:17:00.608Z,92.0
2019-05-15T01:17:40.537Z,92.0
2019-05-15T01:18:20.552Z,92.0
2019-05-15T01:19:10.567Z,92.0
2019-05-15T01:19:50.564Z,92.0
2019-05-15T01:21:10.599Z,92.0
2019-05-15T01:21:50.607Z,92.0
2019-05-15T01:22:20.633Z,92.0
2019-05-15T01:23:00.692Z,92.0
2019-05-15T01:23:50.664Z,92.0
2019-05-15T01:25:10.684Z,92.0
2019-05-15T01:25:50.675Z,92.0
2019-05-15T01:26:20.744Z,92.0
2019-05-15T01:27:00.801Z,92.0
2019-05-15T01:27:40.799Z,92.0
2019-05-15T01:28:20.800Z,92.0
2019-05-15T01:29:10.862Z,92.0
2019-05-15T01:29:50.877Z,92.0
2019-05-15T01:31:10.891Z,92.0
2019-05-15T01:31:50.908Z,92.0
2019-05-15T01:32:20.907Z,92.0
2019-05-15T01:33:50.962Z,92.0
2019-05-15T01:35:10.976Z,92.0
2019-05-15T01:35:50.990Z,92.0
2019-05-15T01:36:20.998Z,92.0
2019-05-15T01:37:41.004Z,92.0
2019-05-15T01:38:21.030Z,92.0
2019-05-15T01:39:11.036Z,92.0
2019-05-15T01:39:51.075Z,92.0
2019-05-15T01:41:11.064Z,92.0
2019-05-15T01:41:51.088Z,92.0
2019-05-15T01:42:21.174Z,93.0
2019-05-15T01:43:51.146Z,93.0
2019-05-15T01:45:11.211Z,92.0
2019-05-15T01:45:51.175Z,92.0
2019-05-15T01:46:21.182Z,92.0
2019-05-15T01:47:41.194Z,92.0
2019-05-15T01:48:21.220Z,92.0
2019-05-15T01:49:11.219Z,92.0
2019-05-15T01:49:51.265Z,93.0
2019-05-15T01:51:11.294Z,93.0
2019-05-15T01:51:51.299Z,93.0
2019-05-15T01:52:21.312Z,93.0
2019-05-15T01:53:51.321Z,92.0
2019-05-15T01:55:11.368Z,90.0
2019-05-15T01:55:51.353Z,88.0
2019-05-15T01:56:21.362Z,88.0
2019-05-15T01:57:41.373Z,88.0
2019-05-15T01:58:21.455Z,87.0
2019-05-15T01:59:11.479Z,88.0
2019-05-15T01:59:56.982Z,88.0
2019-05-15T02:01:11.521Z,89.0
2019-05-15T02:01:51.524Z,89.0
2019-05-15T02:02:21.547Z,88.0
2019-05-15T02:03:02.625Z,88.0
2019-05-15T02:03:51.577Z,87.0
2019-05-15T02:05:11.625Z,87.0
2019-05-15T02:05:51.651Z,88.0
2019-05-15T02:06:21.667Z,88.0
2019-05-15T02:07:41.689Z,86.0
2019-05-15T02:08:21.689Z,88.0
2019-05-15T02:09:11.704Z,88.0
2019-05-15T02:09:51.709Z,88.0
2019-05-15T02:11:11.838Z,88.0
2019-05-15T02:11:51.765Z,87.0
2019-05-15T02:12:21.775Z,87.0
2019-05-15T02:13:51.807Z,86.0
2019-05-15T02:15:11.862Z,87.0
2019-05-15T02:15:51.902Z,87.0
2019-05-15T02:16:21.981Z,86.0
2019-05-15T02:17:41.937Z,86.0
2019-05-15T02:18:21.998Z,87.0
2019-05-15T02:19:12.010Z,87.0
2019-05-15T02:19:52.004Z,87.0
2019-05-15T02:21:42.034Z,85.0
2019-05-15T02:22:22.109Z,85.0
2019-05-15T02:23:52.117Z,85.0
2019-05-15T02:24:22.130Z,85.0
2019-05-15T02:25:12.137Z,82.0
2019-05-15T02:25:52.139Z,85.0
2019-05-15T02:26:22.149Z,85.0
2019-05-15T02:27:12.164Z,83.0
2019-05-15T02:27:52.170Z,83.0
2019-05-15T02:29:14.358Z,79.0
2019-05-15T02:29:52.199Z,79.0
2019-05-15T02:31:42.245Z,79.0
2019-05-15T02:32:22.247Z,77.0
2019-05-15T02:33:52.295Z,80.0
2019-05-15T02:34:22.317Z,79.0
2019-05-15T02:35:12.410Z,79.0
2019-05-15T02:35:52.380Z,78.0
2019-05-15T02:36:22.360Z,78.0
2019-05-15T02:37:12.367Z,77.0
2019-05-15T02:37:52.376Z,76.0
2019-05-15T02:38:32.418Z,75.0
2019-05-15T02:39:12.401Z,75.0
2019-05-15T02:39:52.419Z,75.0
2019-05-15T02:41:42.464Z,76.0
2019-05-15T02:42:22.466Z,77.0
2019-05-15T02:43:52.493Z,76.0
2019-05-15T02:44:22.497Z,76.0
2019-05-15T02:45:42.692Z,77.0
2019-05-15T02:46:22.547Z,77.0
2019-05-15T02:47:12.534Z,78.0
2019-05-15T02:47:52.583Z,78.0
2019-05-15T02:49:12.662Z,79.0
2019-05-15T02:49:52.638Z,76.0
2019-05-15T02:51:42.738Z,74.0
2019-05-15T02:52:22.720Z,75.0
2019-05-15T02:53:52.758Z,74.0
2019-05-15T02:54:22.757Z,76.0
2019-05-15T02:55:42.833Z,77.0
2019-05-15T02:56:22.828Z,77.0
2019-05-15T02:57:12.831Z,73.0
2019-05-15T02:57:52.852Z,73.0
2019-05-15T02:59:12.866Z,75.0
2019-05-15T02:59:52.873Z,76.0
2019-05-15T03:01:42.920Z,74.0
2019-05-15T03:02:22.907Z,74.0
2019-05-15T03:03:52.955Z,67.0
2019-05-15T03:04:22.962Z,68.0
2019-05-15T03:05:13.018Z,69.0
2019-05-15T03:05:53.025Z,72.0
2019-05-15T03:06:23.043Z,74.0
2019-05-15T03:07:13.047Z,74.0
2019-05-15T03:07:53.058Z,74.0
2019-05-15T03:09:13.066Z,74.0
2019-05-15T03:09:53.086Z,75.0
2019-05-15T03:11:43.167Z,76.0
2019-05-15T03:12:23.173Z,76.0
2019-05-15T03:13:53.191Z,76.0
2019-05-15T03:14:23.202Z,75.0
2019-05-15T03:15:13.202Z,73.0
2019-05-15T03:15:53.255Z,73.0
2019-05-15T03:16:23.243Z,73.0
2019-05-15T03:17:13.292Z,74.0
2019-05-15T03:17:53.262Z,76.0
2019-05-15T03:19:13.273Z,77.0
2019-05-15T03:19:53.287Z,78.0
2019-05-15T03:21:43.353Z,79.0
2019-05-15T03:22:23.396Z,79.0
2019-05-15T03:23:53.418Z,81.0
2019-05-15T03:24:23.435Z,81.0
2019-05-15T03:25:13.432Z,81.0
2019-05-15T03:25:53.442Z,80.0
2019-05-15T03:26:23.452Z,79.0
2019-05-15T03:27:13.470Z,78.0
2019-05-15T03:27:53.611Z,79.0
2019-05-15T03:29:13.529Z,78.0
2019-05-15T03:29:53.552Z,79.0
2019-05-15T03:32:33.940Z,82.0
2019-05-15T03:34:55.974Z,83.0
2019-05-15T03:35:23.755Z,83.0
2019-05-15T03:36:14.192Z,83.0
2019-05-15T03:36:53.775Z,83.0
2019-05-15T03:37:23.720Z,82.0
2019-05-15T03:38:43.747Z,81.0
2019-05-15T03:39:46.807Z,81.0
2019-05-15T03:40:23.791Z,81.0
2019-05-15T03:42:43.877Z,72.0
2019-05-15T03:43:23.894Z,70.0
2019-05-15T03:44:43.923Z,70.0
2019-05-15T03:45:23.920Z,71.0
2019-05-15T03:47:43.937Z,70.0
2019-05-15T03:48:23.955Z,69.0
2019-05-15T03:49:43.990Z,70.0
2019-05-15T03:50:23.978Z,71.0
2019-05-15T03:52:44.069Z,73.0
2019-05-15T03:53:24.107Z,72.0
2019-05-15T03:54:44.173Z,69.0
2019-05-15T03:55:24.193Z,69.0
2019-05-15T03:55:54.206Z,70.0
2019-05-15T03:58:14.324Z,72.0
2019-05-15T03:58:54.320Z,72.0
2019-05-15T04:00:24.354Z,72.0
2019-05-15T04:01:04.421Z,72.0
2019-05-15T04:02:44.391Z,74.0
2019-05-15T04:03:24.441Z,74.0
2019-05-15T04:03:54.411Z,74.0
2019-05-15T04:05:14.437Z,76.0
2019-05-15T04:05:54.446Z,75.0
2019-05-15T04:08:24.474Z,73.0
2019-05-15T04:09:04.515Z,75.0
2019-05-15T04:09:44.494Z,76.0
2019-05-15T04:10:24.512Z,78.0
2019-05-15T04:10:54.525Z,78.0
2019-05-15T04:13:14.585Z,79.0
2019-05-15T04:13:54.616Z,79.0
2019-05-15T04:14:34.640Z,79.0
2019-05-15T04:15:24.610Z,79.0
2019-05-15T04:16:54.657Z,80.0
2019-05-15T04:18:14.694Z,80.0
2019-05-15T04:18:54.736Z,80.0
2019-05-15T04:20:14.721Z,80.0
2019-05-15T04:20:54.733Z,81.0
2019-05-15T04:21:24.732Z,81.0
2019-05-15T04:22:24.748Z,82.0
2019-05-15T04:23:44.789Z,82.0
2019-05-15T04:24:24.816Z,82.0
2019-05-15T04:25:44.828Z,82.0
2019-05-15T04:26:24.835Z,83.0
2019-05-15T04:27:14.865Z,83.0
2019-05-15T04:27:54.886Z,83.0
2019-05-15T04:29:14.906Z,82.0
2019-05-15T04:29:54.908Z,83.0
2019-05-15T04:30:34.992Z,83.0
2019-05-15T04:31:24.925Z,84.0
2019-05-15T04:32:24.925Z,83.0
2019-05-15T04:33:05.011Z,83.0
2019-05-15T04:33:44.959Z,83.0
2019-05-15T04:34:24.994Z,83.0
2019-05-15T04:34:55.018Z,83.0
2019-05-15T04:35:35.076Z,83.0
2019-05-15T04:36:15.026Z,83.0
2019-05-15T04:37:15.041Z,84.0
2019-05-15T04:37:55.053Z,82.0
2019-05-15T04:39:25.109Z,83.0
2019-05-15T04:40:05.103Z,83.0
2019-05-15T04:40:45.109Z,83.0
2019-05-15T04:41:25.105Z,84.0
2019-05-15T04:42:05.125Z,84.0
2019-05-15T04:42:45.125Z,84.0
2019-05-15T04:43:25.129Z,84.0
2019-05-15T04:44:05.253Z,84.0
2019-05-15T04:44:45.201Z,83.0
2019-05-15T04:45:25.194Z,84.0
2019-05-15T04:45:55.208Z,84.0
2019-05-15T04:47:25.237Z,85.0
2019-05-15T04:48:05.295Z,85.0
2019-05-15T04:48:45.308Z,85.0
2019-05-15T04:49:15.310Z,85.0
2019-05-15T04:49:55.372Z,85.0
2019-05-15T04:50:28.419Z,85.0
2019-05-15T04:51:05.348Z,85.0
2019-05-15T04:52:00.042Z,85.0
2019-05-15T04:52:35.406Z,84.0
2019-05-15T04:53:15.426Z,84.0
2019-05-15T04:53:58.443Z,84.0
2019-05-15T04:54:25.447Z,83.0
2019-05-15T04:55:05.484Z,84.0
2019-05-15T04:55:45.445Z,84.0
2019-05-15T04:56:29.094Z,84.0
2019-05-15T04:57:15.481Z,84.0
2019-05-15T04:57:55.499Z,83.0
2019-05-15T04:58:35.506Z,83.0
2019-05-15T04:59:15.518Z,84.0
2019-05-15T04:59:55.527Z,84.0
2019-05-15T05:00:25.518Z,84.0
2019-05-15T05:01:08.924Z,84.0
2019-05-15T05:02:11.581Z,85.0
2019-05-15T05:02:35.703Z,84.0
2019-05-15T05:03:15.664Z,85.0
2019-05-15T05:03:58.709Z,85.0
2019-05-15T05:04:25.684Z,85.0
2019-05-15T05:05:05.755Z,84.0
2019-05-15T05:05:45.800Z,85.0
2019-05-15T05:06:25.786Z,85.0
2019-05-15T05:07:18.680Z,85.0
2019-05-15T05:07:55.799Z,86.0
2019-05-15T05:08:35.862Z,85.0
2019-05-15T05:09:15.907Z,84.0
2019-05-15T05:09:55.860Z,84.0
2019-05-15T05:10:28.351Z,83.0
2019-05-15T05:11:05.897Z,83.0
2019-05-15T05:11:58.184Z,83.0
2019-05-15T05:12:35.889Z,82.0
2019-05-15T05:13:18.934Z,80.0
2019-05-15T05:13:55.911Z,80.0
2019-05-15T05:14:28.313Z,80.0
2019-05-15T05:15:08.349Z,81.0
2019-05-15T05:15:45.992Z,81.0
2019-05-15T05:16:25.947Z,81.0
2019-05-15T05:17:08.780Z,80.0
2019-05-15T05:17:45.983Z,80.0
2019-05-15T05:18:26.010Z,80.0
2019-05-15T05:19:08.707Z,80.0
2019-05-15T05:19:47.823Z,80.0
2019-05-15T05:20:26.041Z,79.0
2019-05-15T05:20:57.726Z,79.0
2019-05-15T05:21:38.166Z,79.0
2019-05-15T05:22:28.183Z,80.0
2019-05-15T05:23:08.392Z,80.0
2019-05-15T05:23:48.195Z,80.0
2019-05-15T05:24:38.062Z,80.0
2019-05-15T05:25:18.189Z,79.0
2019-05-15T05:25:58.094Z,79.0
2019-05-15T05:26:38.198Z,79.0
2019-05-15T05:27:26.213Z,79.0
2019-05-15T05:27:58.024Z,79.0
2019-05-15T05:28:37.916Z,80.0
2019-05-15T05:29:17.772Z,80.0
2019-05-15T05:29:58.252Z,79.0
2019-05-15T05:30:38.415Z,80.0
2019-05-15T05:31:18.839Z,79.0
2019-05-15T05:32:08.935Z,79.0
2019-05-15T05:32:48.605Z,80.0
2019-05-15T05:33:38.096Z,79.0
2019-05-15T05:34:18.838Z,79.0
2019-05-15T05:34:56.360Z,79.0
2019-05-15T05:35:27.871Z,79.0
2019-05-15T05:36:07.860Z,79.0
2019-05-15T05:36:58.822Z,78.0
2019-05-15T05:37:27.935Z,78.0
2019-05-15T05:38:07.823Z,79.0
2019-05-15T05:38:46.476Z,79.0
2019-05-15T05:39:36.492Z,78.0
2019-05-15T05:40:18.874Z,79.0
2019-05-15T05:40:58.615Z,79.0
2019-05-15T05:41:38.995Z,80.0
2019-05-15T05:42:29.002Z,79.0
2019-05-15T05:42:56.679Z,79.0
2019-05-15T05:43:38.274Z,79.0
2019-05-15T05:44:18.835Z,78.0
2019-05-15T05:44:58.218Z,78.0
2019-05-15T05:46:18.365Z,79.0
2019-05-15T05:47:48.661Z,78.0
2019-05-15T05:48:38.293Z,78.0
2019-05-15T05:49:18.480Z,78.0
2019-05-15T05:49:58.154Z,79.0
2019-05-15T05:50:28.782Z,78.0
2019-05-15T05:51:09.126Z,78.0
2019-05-15T05:51:58.710Z,78.0
2019-05-15T05:52:27.962Z,76.0
2019-05-15T05:53:08.776Z,76.0
2019-05-15T05:53:38.273Z,77.0
2019-05-15T05:54:18.156Z,76.0
2019-05-15T05:54:58.082Z,76.0
2019-05-15T05:55:38.423Z,77.0
2019-05-15T05:56:18.079Z,77.0
2019-05-15T05:57:09.062Z,76.0
2019-05-15T05:57:48.690Z,76.0
2019-05-15T05:59:18.497Z,77.0
2019-05-15T05:59:58.263Z,77.0
2019-05-15T06:00:28.525Z,77.0
2019-05-15T06:01:09.253Z,77.0
2019-05-15T06:01:58.908Z,77.0
2019-05-15T06:02:27.977Z,76.0
2019-05-15T06:03:08.635Z,77.0
2019-05-15T06:03:49.040Z,76.0
2019-05-15T06:04:38.418Z,77.0
2019-05-15T06:05:18.975Z,78.0
2019-05-15T06:05:58.998Z,76.0
2019-05-15T06:06:48.783Z,77.0
2019-05-15T06:07:27.892Z,76.0
2019-05-15T06:08:07.943Z,76.0
2019-05-15T06:08:47.964Z,76.0
2019-05-15T06:09:27.761Z,76.0
2019-05-15T06:09:58.084Z,76.0
2019-05-15T06:10:38.536Z,76.0
2019-05-15T06:11:18.318Z,77.0
2019-05-15T06:12:18.834Z,77.0
2019-05-15T06:12:58.672Z,78.0
2019-05-15T06:13:38.200Z,76.0
2019-05-15T06:14:18.269Z,77.0
2019-05-15T06:14:58.034Z,77.0
2019-05-15T06:15:28.547Z,77.0
2019-05-15T06:16:08.410Z,76.0
2019-05-15T06:17:08.326Z,77.0
2019-05-15T06:17:48.086Z,77.0
2019-05-15T06:18:38.700Z,78.0
2019-05-15T06:19:18.176Z,78.0
2019-05-15T06:19:58.581Z,77.0
2019-05-15T06:20:39.472Z,77.0
2019-05-15T06:21:17.889Z,77.0
2019-05-15T06:22:18.751Z,77.0
2019-05-15T06:22:57.986Z,77.0
2019-05-15T06:23:33.549Z,78.0
2019-05-15T06:24:48.486Z,78.0
2019-05-15T06:25:39.047Z,78.0
2019-05-15T06:26:19.582Z,78.0
2019-05-15T06:27:08.166Z,78.0
2019-05-15T06:27:48.122Z,77.0
2019-05-15T06:28:28.904Z,77.0
2019-05-15T06:28:58.279Z,78.0
2019-05-15T06:30:21.704Z,78.0
2019-05-15T06:31:00.610Z,78.0
2019-05-15T06:31:48.347Z,78.0
2019-05-15T06:32:28.875Z,78.0
2019-05-15T06:33:49.015Z,78.0
2019-05-15T06:34:28.536Z,78.0
2019-05-15T06:34:57.989Z,78.0
2019-05-15T06:36:18.140Z,79.0
2019-05-15T06:37:48.480Z,79.0
2019-05-15T06:38:30.822Z,79.0
2019-05-15T06:38:58.986Z,79.0
2019-05-15T06:39:48.194Z,79.0
2019-05-15T06:40:28.885Z,79.0
2019-05-15T06:40:58.371Z,78.0
2019-05-15T06:43:19.079Z,79.0
2019-05-15T06:43:58.841Z,80.0
2019-05-15T06:44:48.476Z,79.0
2019-05-15T06:45:28.520Z,80.0
2019-05-15T06:45:58.516Z,78.0
2019-05-15T06:47:48.359Z,78.0
2019-05-15T06:48:28.831Z,78.0
2019-05-15T06:48:58.362Z,79.0
2019-05-15T06:50:18.378Z,78.0
2019-05-15T06:50:58.374Z,78.0
2019-05-15T06:53:19.091Z,79.0
2019-05-15T06:53:58.491Z,79.0
2019-05-15T06:54:48.636Z,76.0
2019-05-15T06:55:28.868Z,75.0
2019-05-15T06:55:58.636Z,76.0
2019-05-15T06:56:58.558Z,74.0
2019-05-15T06:57:48.583Z,74.0
2019-05-15T06:58:29.054Z,74.0
2019-05-15T06:58:58.492Z,74.0
2019-05-15T07:00:19.135Z,75.0
2019-05-15T07:00:59.331Z,75.0
2019-05-15T07:01:59.318Z,74.0
2019-05-15T07:03:25.091Z,75.0
2019-05-15T07:03:59.070Z,74.0
2019-05-15T07:04:48.844Z,73.0
2019-05-15T07:05:29.507Z,73.0
2019-05-15T07:07:48.888Z,74.0
2019-05-15T07:08:28.858Z,73.0
2019-05-15T07:09:48.836Z,73.0
2019-05-15T07:10:28.835Z,73.0
2019-05-15T07:11:59.121Z,73.0
2019-05-15T07:12:51.417Z,72.0
2019-05-15T07:13:29.186Z,71.0
2019-05-15T07:13:58.838Z,72.0
2019-05-15T07:15:18.838Z,71.0
2019-05-15T07:15:58.853Z,70.0
2019-05-15T07:18:19.657Z,70.0
2019-05-15T07:18:59.062Z,70.0
2019-05-15T07:19:48.971Z,70.0
2019-05-15T07:20:28.989Z,70.0
2019-05-15T07:21:59.004Z,71.0
2019-05-15T07:23:19.234Z,71.0
2019-05-15T07:23:59.140Z,71.0
2019-05-15T07:24:49.148Z,70.0
2019-05-15T07:25:29.395Z,71.0
2019-05-15T07:25:59.161Z,71.0
2019-05-15T07:26:59.340Z,71.0
2019-05-15T07:27:49.223Z,71.0
2019-05-15T07:28:29.225Z,72.0
2019-05-15T07:28:59.651Z,71.0
2019-05-15T07:29:49.242Z,71.0
2019-05-15T07:30:29.256Z,71.0
2019-05-15T07:30:59.255Z,70.0
2019-05-15T07:33:34.417Z,70.0
2019-05-15T07:33:59.883Z,70.0
2019-05-15T07:34:49.293Z,71.0
2019-05-15T07:35:29.303Z,71.0
2019-05-15T07:35:59.317Z,69.0
2019-05-15T07:37:39.601Z,70.0
2019-05-15T07:38:19.481Z,69.0
2019-05-15T07:38:59.481Z,68.0
2019-05-15T07:40:19.588Z,69.0
2019-05-15T07:41:03.912Z,70.0
2019-05-15T07:41:59.556Z,69.0
2019-05-15T07:43:19.588Z,70.0
2019-05-15T07:43:59.601Z,69.0
2019-05-15T07:45:19.831Z,68.0
2019-05-15T07:46:59.674Z,70.0
2019-05-15T07:47:39.679Z,70.0
2019-05-15T07:48:19.680Z,69.0
2019-05-15T07:48:59.681Z,70.0
2019-05-15T07:49:39.697Z,68.0
2019-05-15T07:50:19.830Z,69.0
2019-05-15T07:50:59.727Z,68.0
2019-05-15T07:51:59.734Z,68.0
2019-05-15T07:52:39.821Z,68.0
2019-05-15T07:53:20.218Z,69.0
2019-05-15T07:54:02.587Z,69.0
2019-05-15T07:55:19.841Z,69.0
2019-05-15T07:56:01.384Z,68.0
2019-05-15T07:56:59.863Z,70.0
2019-05-15T07:58:21.609Z,70.0
2019-05-15T07:58:59.971Z,70.0
2019-05-15T08:00:20.011Z,70.0
2019-05-15T08:01:00.188Z,70.0
2019-05-15T08:01:50.083Z,69.0
2019-05-15T08:02:30.073Z,69.0
2019-05-15T08:03:58.648Z,68.0
2019-05-15T08:04:32.851Z,69.0
2019-05-15T08:06:03.024Z,68.0
2019-05-15T08:07:00.198Z,69.0
2019-05-15T08:08:20.160Z,69.0
2019-05-15T08:09:00.159Z,69.0
2019-05-15T08:09:30.167Z,68.0
2019-05-15T08:10:50.195Z,69.0
2019-05-15T08:11:50.201Z,69.0
2019-05-15T08:12:30.214Z,69.0
2019-05-15T08:14:00.227Z,69.0
2019-05-15T08:15:20.308Z,68.0
2019-05-15T08:16:00.358Z,69.0
2019-05-15T08:16:50.363Z,70.0
2019-05-15T08:17:30.362Z,69.0
2019-05-15T08:18:50.486Z,68.0
2019-05-15T08:19:30.455Z,68.0
2019-05-15T08:21:00.474Z,66.0
2019-05-15T08:22:00.497Z,67.0
2019-05-15T08:23:20.521Z,67.0
2019-05-15T08:24:00.506Z,67.0
2019-05-15T08:24:30.509Z,68.0
2019-05-15T08:25:50.547Z,67.0
2019-05-15T08:26:50.536Z,68.0
2019-05-15T08:27:30.570Z,67.0
2019-05-15T08:29:00.613Z,67.0
2019-05-15T08:30:20.666Z,68.0
2019-05-15T08:31:00.713Z,67.0
2019-05-15T08:31:50.677Z,67.0
2019-05-15T08:32:30.721Z,67.0
2019-05-15T08:33:50.735Z,67.0
2019-05-15T08:34:30.735Z,66.0
2019-05-15T08:36:00.764Z,66.0
2019-05-15T08:37:00.801Z,64.0
2019-05-15T08:38:20.814Z,65.0
2019-05-15T08:39:00.822Z,66.0
2019-05-15T08:39:30.838Z,66.0
2019-05-15T08:40:50.891Z,66.0
2019-05-15T08:41:50.970Z,68.0
2019-05-15T08:42:32.175Z,67.0
2019-05-15T08:43:02.106Z,68.0
2019-05-15T08:44:20.931Z,66.0
2019-05-15T08:44:50.941Z,65.0
2019-05-15T08:45:30.961Z,66.0
2019-05-15T08:46:00.958Z,66.0
2019-05-15T08:47:01.031Z,65.0
2019-05-15T08:48:21.046Z,65.0
2019-05-15T08:49:01.049Z,66.0
2019-05-15T08:50:21.124Z,66.0
2019-05-15T08:51:01.138Z,66.0
2019-05-15T08:51:51.148Z,64.0
2019-05-15T08:52:31.170Z,64.0
2019-05-15T08:53:51.168Z,66.0
2019-05-15T08:54:31.213Z,64.0
2019-05-15T08:56:01.215Z,65.0
2019-05-15T08:57:21.258Z,63.0
2019-05-15T08:58:06.423Z,64.0
2019-05-15T08:58:31.273Z,64.0
2019-05-15T08:59:51.290Z,63.0
2019-05-15T09:00:31.351Z,62.0
2019-05-15T09:03:01.388Z,61.0
2019-05-15T09:04:30.331Z,63.0
2019-05-15T09:05:01.441Z,63.0
2019-05-15T09:05:31.442Z,63.0
2019-05-15T09:07:51.508Z,63.0
2019-05-15T09:08:31.559Z,64.0
2019-05-15T09:10:01.557Z,63.0
2019-05-15T09:12:21.722Z,64.0
2019-05-15T09:13:01.609Z,63.0
2019-05-15T09:13:31.630Z,63.0
2019-05-15T09:14:51.651Z,63.0
2019-05-15T09:15:31.682Z,62.0
2019-05-15T09:18:12.189Z,63.0
2019-05-15T09:19:21.837Z,62.0
2019-05-15T09:20:01.842Z,63.0
2019-05-15T09:20:31.833Z,63.0
2019-05-15T09:22:51.924Z,62.0
2019-05-15T09:23:31.925Z,63.0
2019-05-15T09:24:52.005Z,65.0
2019-05-15T09:25:32.094Z,64.0
2019-05-15T09:26:02.054Z,66.0
2019-05-15T09:27:02.061Z,66.0
2019-05-15T09:28:22.097Z,65.0
2019-05-15T09:29:52.122Z,64.0
2019-05-15T09:30:32.129Z,64.0
2019-05-15T09:32:52.209Z,65.0
2019-05-15T09:33:32.246Z,66.0
2019-05-15T09:34:02.196Z,66.0
2019-05-15T09:35:22.206Z,66.0
2019-05-15T09:37:52.247Z,65.0
2019-05-15T09:38:32.246Z,65.0
2019-05-15T09:39:02.270Z,66.0
2019-05-15T09:40:22.388Z,67.0
2019-05-15T09:42:52.429Z,65.0
2019-05-15T09:43:32.445Z,65.0
2019-05-15T09:44:02.474Z,65.0
2019-05-15T09:45:52.530Z,67.0
2019-05-15T09:46:52.562Z,68.0
2019-05-15T09:47:32.580Z,68.0
2019-05-15T09:48:02.696Z,68.0
2019-05-15T09:49:52.686Z,67.0
2019-05-15T09:50:32.710Z,67.0
2019-05-15T09:51:22.702Z,69.0
2019-05-15T09:52:52.739Z,68.0
2019-05-15T09:53:32.801Z,68.0
2019-05-15T09:54:52.767Z,69.0
2019-05-15T09:55:32.778Z,69.0
2019-05-15T09:56:02.798Z,68.0
2019-05-15T09:57:22.892Z,71.0
2019-05-15T09:58:52.949Z,67.0
2019-05-15T09:59:32.965Z,69.0
2019-05-15T10:00:02.968Z,69.0
2019-05-15T10:01:53.030Z,70.0
2019-05-15T10:02:33.045Z,70.0
2019-05-15T10:03:03.052Z,70.0
2019-05-15T10:03:33.059Z,70.0
2019-05-15T10:05:05.828Z,72.0
2019-05-15T10:05:33.180Z,72.0
2019-05-15T10:06:53.240Z,71.0
2019-05-15T10:07:33.255Z,71.0
2019-05-15T10:08:03.265Z,69.0
2019-05-15T10:09:23.274Z,71.0
2019-05-15T10:10:53.293Z,73.0
2019-05-15T10:11:33.297Z,73.0
2019-05-15T10:12:53.320Z,73.0
2019-05-15T10:13:33.328Z,73.0
2019-05-15T10:14:03.368Z,73.0
2019-05-15T10:15:23.356Z,73.0
2019-05-15T10:16:53.364Z,72.0
2019-05-15T10:17:33.394Z,70.0
2019-05-15T10:18:53.459Z,70.0
2019-05-15T10:19:33.509Z,70.0
2019-05-15T10:20:03.523Z,70.0
2019-05-15T10:21:28.339Z,72.0
2019-05-15T10:22:54.876Z,71.0
2019-05-15T10:23:33.644Z,70.0
2019-05-15T10:24:53.658Z,68.0
2019-05-15T10:25:33.647Z,69.0
2019-05-15T10:26:03.676Z,69.0
2019-05-15T10:27:03.708Z,72.0
2019-05-15T10:28:23.714Z,72.0
2019-05-15T10:29:53.738Z,72.0
2019-05-15T10:30:33.749Z,71.0
2019-05-15T10:31:03.768Z,71.0
2019-05-15T10:32:03.764Z,71.0
2019-05-15T10:33:23.792Z,70.0
2019-05-15T10:34:53.831Z,70.0
2019-05-15T10:35:33.827Z,72.0
2019-05-15T10:37:53.890Z,74.0
2019-05-15T10:38:23.895Z,74.0
2019-05-15T10:39:53.953Z,73.0
2019-05-15T10:40:33.939Z,75.0
2019-05-15T10:42:54.012Z,75.0
2019-05-15T10:43:34.011Z,74.0
2019-05-15T10:44:54.031Z,75.0
2019-05-15T10:45:34.082Z,75.0
2019-05-15T10:47:54.056Z,77.0
2019-05-15T10:48:34.077Z,78.0
2019-05-15T10:49:54.081Z,79.0
2019-05-15T10:50:34.095Z,77.0
2019-05-15T10:51:34.110Z,78.0
2019-05-15T10:52:54.178Z,79.0
2019-05-15T10:53:34.182Z,80.0
2019-05-15T10:54:54.202Z,79.0
2019-05-15T10:55:34.224Z,79.0
2019-05-15T10:56:34.270Z,79.0
2019-05-15T10:57:54.253Z,80.0
2019-05-15T10:58:34.260Z,78.0
2019-05-15T10:59:54.298Z,78.0
2019-05-15T11:00:34.302Z,76.0
2019-05-15T11:01:34.320Z,77.0
2019-05-15T11:02:54.327Z,78.0
2019-05-15T11:03:35.143Z,78.0
2019-05-15T11:04:54.358Z,80.0
2019-05-15T11:05:41.719Z,79.0
2019-05-15T11:06:34.382Z,81.0
2019-05-15T11:07:54.398Z,77.0
2019-05-15T11:08:34.403Z,78.0
2019-05-15T11:09:04.416Z,79.0
2019-05-15T11:10:54.513Z,77.0
2019-05-15T11:11:54.526Z,79.0
2019-05-15T11:12:34.567Z,79.0
2019-05-15T11:13:54.597Z,76.0
2019-05-15T11:14:34.636Z,77.0
2019-05-15T11:15:54.623Z,77.0
2019-05-15T11:16:54.636Z,79.0
2019-05-15T11:17:34.646Z,78.0
2019-05-15T11:18:54.779Z,78.0
2019-05-15T11:19:36.328Z,80.0
2019-05-15T11:20:54.732Z,80.0
2019-05-15T11:21:54.743Z,81.0
2019-05-15T11:22:34.747Z,80.0
2019-05-15T11:23:54.818Z,77.0
2019-05-15T11:24:34.776Z,77.0
2019-05-15T11:25:54.804Z,76.0
2019-05-15T11:26:56.171Z,76.0
2019-05-15T11:27:34.816Z,77.0
2019-05-15T11:28:54.871Z,78.0
2019-05-15T11:29:34.891Z,76.0
2019-05-15T11:30:54.922Z,78.0
2019-05-15T11:31:54.911Z,76.0
2019-05-15T11:32:34.960Z,79.0
2019-05-15T11:33:54.970Z,78.0
2019-05-15T11:34:34.989Z,78.0
2019-05-15T11:36:01.875Z,78.0
2019-05-15T11:36:55.030Z,82.0
2019-05-15T11:37:35.049Z,75.0
2019-05-15T11:38:55.070Z,77.0
2019-05-15T11:39:35.078Z,77.0
2019-05-15T11:40:55.123Z,79.0
2019-05-15T11:41:55.104Z,75.0
2019-05-15T11:42:35.118Z,76.0
2019-05-15T11:43:55.125Z,77.0
2019-05-15T11:44:35.128Z,79.0
2019-05-15T11:45:55.173Z,80.0
2019-05-15T11:46:55.204Z,78.0
2019-05-15T11:47:35.232Z,77.0
2019-05-15T11:48:55.235Z,76.0
2019-05-15T11:49:35.232Z,76.0
2019-05-15T11:50:15.428Z,78.0
2019-05-15T11:50:55.299Z,78.0
2019-05-15T11:51:59.944Z,77.0
2019-05-15T11:52:37.244Z,75.0
2019-05-15T11:53:55.396Z,75.0
2019-05-15T11:54:35.491Z,75.0
2019-05-15T11:55:55.465Z,73.0
2019-05-15T11:56:55.474Z,75.0
2019-05-15T11:57:42.282Z,76.0
2019-05-15T11:58:55.496Z,73.0
2019-05-15T11:59:42.431Z,74.0
2019-05-15T12:00:57.807Z,74.0
2019-05-15T12:01:57.562Z,74.0
2019-05-15T12:02:38.171Z,73.0
2019-05-15T12:03:57.955Z,73.0
2019-05-15T12:04:38.169Z,73.0
2019-05-15T12:05:58.225Z,73.0
2019-05-15T12:06:59.416Z,75.0
2019-05-15T12:07:37.987Z,74.0
2019-05-15T12:08:58.721Z,77.0
2019-05-15T12:09:35.846Z,76.0
2019-05-15T12:10:58.812Z,77.0
2019-05-15T12:11:55.867Z,74.0
2019-05-15T12:12:38.288Z,74.0